sensor_id;sensor_type;location;lat;lon;timestamp;temperature;humidity
23335;DHT22;11839;48.598;8.870;2023-01-15T00:01:28;10.20;99.90
23335;DHT22;11839;48.598;8.870;2023-01-15T00:03:56;10.20;99.90
23335;DHT22;11839;48.598;8.870;2023-01-15T00:06:24;10.10;99.90
23335;DHT22;11839;48.598;8.870;2023-01-15T00:08:53;10.10;99.90
23335;DHT22;11839;48.598;8.870;2023-01-15T00:11:21;10.20;99.90
23335;DHT22;11839;48.598;8.870;2023-01-15T00:13:48;10.30;99.90
23335;DHT22;11839;48.598;8.870;2023-01-15T00:16:17;10.40;99.90
23335;DHT22;11839;48.598;8.870;2023-01-15T00:18:48;10.40;99.90
23335;DHT22;11839;48.598;8.870;2023-01-15T00:21:16;10.30;99.90
23335;DHT22;11839;48.598;8.870;2023-01-15T00:23:43;10.40;99.90
23335;DHT22;11839;48.598;8.870;2023-01-15T00:26:30;10.40;99.90
23335;DHT22;11839;48.598;8.870;2023-01-15T00:29:15;10.20;99.90
23335;DHT22;11839;48.598;8.870;2023-01-15T00:31:43;10.40;99.90
23335;DHT22;11839;48.598;8.870;2023-01-15T00:34:11;10.40;99.90
23335;DHT22;11839;48.598;8.870;2023-01-15T00:36:37;10.40;99.90
23335;DHT22;11839;48.598;8.870;2023-01-15T00:39:05;10.70;99.90
23335;DHT22;11839;48.598;8.870;2023-01-15T00:41:33;10.60;99.90
23335;DHT22;11839;48.598;8.870;2023-01-15T00:44:00;10.40;99.90
23335;DHT22;11839;48.598;8.870;2023-01-15T00:46:26;10.50;99.90
23335;DHT22;11839;48.598;8.870;2023-01-15T00:48:53;10.50;99.90
23335;DHT22;11839;48.598;8.870;2023-01-15T00:51:20;10.40;99.90
23335;DHT22;11839;48.598;8.870;2023-01-15T00:53:47;10.40;99.90
23335;DHT22;11839;48.598;8.870;2023-01-15T00:56:13;10.70;99.90
23335;DHT22;11839;48.598;8.870;2023-01-15T00:58:41;10.70;99.90
23335;DHT22;11839;48.598;8.870;2023-01-15T01:01:08;10.70;99.90
23335;DHT22;11839;48.598;8.870;2023-01-15T01:03:35;10.70;99.90
23335;DHT22;11839;48.598;8.870;2023-01-15T01:06:03;10.80;99.90
23335;DHT22;11839;48.598;8.870;2023-01-15T01:08:30;10.80;99.90
23335;DHT22;11839;48.598;8.870;2023-01-15T01:11:01;10.70;99.90
23335;DHT22;11839;48.598;8.870;2023-01-15T01:13:28;10.80;99.90
23335;DHT22;11839;48.598;8.870;2023-01-15T01:15:56;10.70;99.90
23335;DHT22;11839;48.598;8.870;2023-01-15T01:18:23;10.60;99.90
23335;DHT22;11839;48.598;8.870;2023-01-15T01:20:49;10.60;99.90
23335;DHT22;11839;48.598;8.870;2023-01-15T01:23:17;10.60;99.90
23335;DHT22;11839;48.598;8.870;2023-01-15T01:25:44;10.70;99.90
23335;DHT22;11839;48.598;8.870;2023-01-15T01:28:11;10.70;99.90
23335;DHT22;11839;48.598;8.870;2023-01-15T01:30:38;10.80;99.90
23335;DHT22;11839;48.598;8.870;2023-01-15T01:33:07;10.80;99.90
23335;DHT22;11839;48.598;8.870;2023-01-15T01:35:34;10.80;99.90
23335;DHT22;11839;48.598;8.870;2023-01-15T01:38:00;10.90;99.90
23335;DHT22;11839;48.598;8.870;2023-01-15T01:40:28;10.70;99.90
23335;DHT22;11839;48.598;8.870;2023-01-15T01:42:55;10.80;99.90
23335;DHT22;11839;48.598;8.870;2023-01-15T01:45:25;10.90;99.90
23335;DHT22;11839;48.598;8.870;2023-01-15T01:47:55;10.90;99.90
23335;DHT22;11839;48.598;8.870;2023-01-15T01:50:25;10.90;99.90
23335;DHT22;11839;48.598;8.870;2023-01-15T01:52:56;11.10;99.90
23335;DHT22;11839;48.598;8.870;2023-01-15T01:55:25;11.20;99.90
23335;DHT22;11839;48.598;8.870;2023-01-15T01:57:55;11.30;99.90
23335;DHT22;11839;48.598;8.870;2023-01-15T02:00:24;11.20;99.90
23335;DHT22;11839;48.598;8.870;2023-01-15T02:02:52;11.30;99.90
23335;DHT22;11839;48.598;8.870;2023-01-15T02:05:26;11.40;99.90
23335;DHT22;11839;48.598;8.870;2023-01-15T02:07:55;11.50;99.90
23335;DHT22;11839;48.598;8.870;2023-01-15T02:10:22;11.70;99.90
23335;DHT22;11839;48.598;8.870;2023-01-15T02:12:54;11.70;99.90
23335;DHT22;11839;48.598;8.870;2023-01-15T02:15:26;11.80;99.90
23335;DHT22;11839;48.598;8.870;2023-01-15T02:17:57;11.70;99.90
23335;DHT22;11839;48.598;8.870;2023-01-15T02:20:32;11.70;99.90
23335;DHT22;11839;48.598;8.870;2023-01-15T02:23:28;11.80;99.90
23335;DHT22;11839;48.598;8.870;2023-01-15T02:26:35;11.90;99.90
23335;DHT22;11839;48.598;8.870;2023-01-15T02:29:04;12.00;99.90
23335;DHT22;11839;48.598;8.870;2023-01-15T02:31:36;12.00;99.90
23335;DHT22;11839;48.598;8.870;2023-01-15T02:34:05;12.00;99.90
23335;DHT22;11839;48.598;8.870;2023-01-15T02:36:37;12.10;99.90
23335;DHT22;11839;48.598;8.870;2023-01-15T02:39:08;12.00;99.90
23335;DHT22;11839;48.598;8.870;2023-01-15T02:41:40;12.10;99.90
23335;DHT22;11839;48.598;8.870;2023-01-15T02:44:10;12.20;99.90
23335;DHT22;11839;48.598;8.870;2023-01-15T02:46:39;12.10;99.90
23335;DHT22;11839;48.598;8.870;2023-01-15T02:49:08;12.20;99.90
23335;DHT22;11839;48.598;8.870;2023-01-15T02:51:39;12.20;99.90
23335;DHT22;11839;48.598;8.870;2023-01-15T02:54:11;12.20;99.90
23335;DHT22;11839;48.598;8.870;2023-01-15T02:56:42;12.20;99.90
23335;DHT22;11839;48.598;8.870;2023-01-15T02:59:14;12.10;99.90
23335;DHT22;11839;48.598;8.870;2023-01-15T03:01:46;12.20;99.90
23335;DHT22;11839;48.598;8.870;2023-01-15T03:04:19;12.30;99.90
23335;DHT22;11839;48.598;8.870;2023-01-15T03:06:50;12.30;99.90
23335;DHT22;11839;48.598;8.870;2023-01-15T03:09:18;12.30;99.90
23335;DHT22;11839;48.598;8.870;2023-01-15T03:11:53;12.30;99.90
23335;DHT22;11839;48.598;8.870;2023-01-15T03:14:29;12.40;99.90
23335;DHT22;11839;48.598;8.870;2023-01-15T03:17:07;12.40;99.90
23335;DHT22;11839;48.598;8.870;2023-01-15T03:19:39;12.30;99.90
23335;DHT22;11839;48.598;8.870;2023-01-15T03:22:11;12.10;99.90
23335;DHT22;11839;48.598;8.870;2023-01-15T03:24:42;12.10;99.90
23335;DHT22;11839;48.598;8.870;2023-01-15T03:27:12;12.10;99.90
23335;DHT22;11839;48.598;8.870;2023-01-15T03:29:42;12.10;99.90
23335;DHT22;11839;48.598;8.870;2023-01-15T03:32:10;12.30;99.90
23335;DHT22;11839;48.598;8.870;2023-01-15T03:34:41;12.20;99.90
23335;DHT22;11839;48.598;8.870;2023-01-15T03:37:08;12.10;99.90
23335;DHT22;11839;48.598;8.870;2023-01-15T03:39:36;12.00;99.90
23335;DHT22;11839;48.598;8.870;2023-01-15T03:42:13;12.10;99.90
23335;DHT22;11839;48.598;8.870;2023-01-15T03:44:47;12.10;99.90
23335;DHT22;11839;48.598;8.870;2023-01-15T03:47:27;12.10;99.90
23335;DHT22;11839;48.598;8.870;2023-01-15T03:50:00;12.10;99.90
23335;DHT22;11839;48.598;8.870;2023-01-15T03:52:31;12.10;99.90
23335;DHT22;11839;48.598;8.870;2023-01-15T03:55:08;12.20;99.90
23335;DHT22;11839;48.598;8.870;2023-01-15T03:57:41;12.20;99.90
23335;DHT22;11839;48.598;8.870;2023-01-15T04:00:14;12.20;99.90
23335;DHT22;11839;48.598;8.870;2023-01-15T04:02:44;12.20;99.90
23335;DHT22;11839;48.598;8.870;2023-01-15T04:05:13;12.20;99.90
23335;DHT22;11839;48.598;8.870;2023-01-15T04:07:41;12.20;99.90
23335;DHT22;11839;48.598;8.870;2023-01-15T04:10:09;12.20;99.90
23335;DHT22;11839;48.598;8.870;2023-01-15T04:12:38;12.20;99.90
23335;DHT22;11839;48.598;8.870;2023-01-15T04:15:06;12.30;99.90
23335;DHT22;11839;48.598;8.870;2023-01-15T04:17:33;12.40;99.90
23335;DHT22;11839;48.598;8.870;2023-01-15T04:19:59;12.30;99.90
23335;DHT22;11839;48.598;8.870;2023-01-15T04:22:26;12.20;99.90
23335;DHT22;11839;48.598;8.870;2023-01-15T04:24:53;12.30;99.90
23335;DHT22;11839;48.598;8.870;2023-01-15T04:27:20;12.10;99.90
23335;DHT22;11839;48.598;8.870;2023-01-15T04:29:48;12.00;99.90
23335;DHT22;11839;48.598;8.870;2023-01-15T04:32:15;12.10;99.90
23335;DHT22;11839;48.598;8.870;2023-01-15T04:34:42;12.10;99.90
23335;DHT22;11839;48.598;8.870;2023-01-15T04:37:09;12.10;99.90
23335;DHT22;11839;48.598;8.870;2023-01-15T04:39:35;12.20;99.90
23335;DHT22;11839;48.598;8.870;2023-01-15T04:42:02;12.10;99.90
23335;DHT22;11839;48.598;8.870;2023-01-15T04:44:48;12.10;99.90
23335;DHT22;11839;48.598;8.870;2023-01-15T04:47:15;12.10;99.90
23335;DHT22;11839;48.598;8.870;2023-01-15T04:49:42;12.30;99.90
23335;DHT22;11839;48.598;8.870;2023-01-15T04:52:08;12.50;99.90
23335;DHT22;11839;48.598;8.870;2023-01-15T04:54:35;12.40;99.90
23335;DHT22;11839;48.598;8.870;2023-01-15T04:57:03;12.50;99.90
23335;DHT22;11839;48.598;8.870;2023-01-15T04:59:30;12.40;99.90
23335;DHT22;11839;48.598;8.870;2023-01-15T05:01:58;12.30;99.90
23335;DHT22;11839;48.598;8.870;2023-01-15T05:04:25;12.30;99.90
23335;DHT22;11839;48.598;8.870;2023-01-15T05:06:51;12.30;99.90
23335;DHT22;11839;48.598;8.870;2023-01-15T05:09:18;12.30;99.90
23335;DHT22;11839;48.598;8.870;2023-01-15T05:11:45;12.20;99.90
23335;DHT22;11839;48.598;8.870;2023-01-15T05:14:12;12.30;99.90
23335;DHT22;11839;48.598;8.870;2023-01-15T05:16:38;12.60;99.90
23335;DHT22;11839;48.598;8.870;2023-01-15T05:19:08;12.50;99.90
23335;DHT22;11839;48.598;8.870;2023-01-15T05:21:38;12.50;99.90
23335;DHT22;11839;48.598;8.870;2023-01-15T05:24:06;12.30;99.90
23335;DHT22;11839;48.598;8.870;2023-01-15T05:26:35;12.30;99.90
23335;DHT22;11839;48.598;8.870;2023-01-15T05:29:03;12.30;99.90
23335;DHT22;11839;48.598;8.870;2023-01-15T05:31:30;12.30;99.90
23335;DHT22;11839;48.598;8.870;2023-01-15T05:33:58;12.40;99.90
23335;DHT22;11839;48.598;8.870;2023-01-15T05:36:28;12.50;99.90
23335;DHT22;11839;48.598;8.870;2023-01-15T05:38:55;12.40;99.90
23335;DHT22;11839;48.598;8.870;2023-01-15T05:41:24;11.70;99.90
23335;DHT22;11839;48.598;8.870;2023-01-15T05:44:10;10.70;99.90
23335;DHT22;11839;48.598;8.870;2023-01-15T05:46:39;10.30;99.90
23335;DHT22;11839;48.598;8.870;2023-01-15T05:49:08;9.70;99.90
23335;DHT22;11839;48.598;8.870;2023-01-15T05:51:37;9.40;99.90
23335;DHT22;11839;48.598;8.870;2023-01-15T05:54:06;9.30;99.90
23335;DHT22;11839;48.598;8.870;2023-01-15T05:56:34;9.10;99.90
23335;DHT22;11839;48.598;8.870;2023-01-15T05:59:01;9.00;99.90
23335;DHT22;11839;48.598;8.870;2023-01-15T06:01:28;9.10;99.90
23335;DHT22;11839;48.598;8.870;2023-01-15T06:03:57;9.00;99.90
23335;DHT22;11839;48.598;8.870;2023-01-15T06:06:24;8.90;99.90
23335;DHT22;11839;48.598;8.870;2023-01-15T06:08:53;8.90;99.90
23335;DHT22;11839;48.598;8.870;2023-01-15T06:11:20;8.80;99.90
23335;DHT22;11839;48.598;8.870;2023-01-15T06:13:47;8.70;99.90
23335;DHT22;11839;48.598;8.870;2023-01-15T06:16:14;8.70;99.90
23335;DHT22;11839;48.598;8.870;2023-01-15T06:18:41;8.70;99.90
23335;DHT22;11839;48.598;8.870;2023-01-15T06:21:10;8.70;99.90
23335;DHT22;11839;48.598;8.870;2023-01-15T06:23:38;8.70;99.90
23335;DHT22;11839;48.598;8.870;2023-01-15T06:26:09;8.60;99.90
23335;DHT22;11839;48.598;8.870;2023-01-15T06:28:36;8.40;99.90
23335;DHT22;11839;48.598;8.870;2023-01-15T06:31:04;8.40;99.90
23335;DHT22;11839;48.598;8.870;2023-01-15T06:33:32;8.40;99.90
23335;DHT22;11839;48.598;8.870;2023-01-15T06:36:02;8.30;99.90
23335;DHT22;11839;48.598;8.870;2023-01-15T06:38:29;8.20;99.90
23335;DHT22;11839;48.598;8.870;2023-01-15T06:40:58;8.00;99.90
23335;DHT22;11839;48.598;8.870;2023-01-15T06:43:26;7.90;99.90
23335;DHT22;11839;48.598;8.870;2023-01-15T06:46:11;7.80;99.90
23335;DHT22;11839;48.598;8.870;2023-01-15T06:48:56;7.80;99.90
23335;DHT22;11839;48.598;8.870;2023-01-15T06:51:23;7.90;99.90
23335;DHT22;11839;48.598;8.870;2023-01-15T06:53:50;7.80;99.90
23335;DHT22;11839;48.598;8.870;2023-01-15T06:56:17;7.80;99.90
23335;DHT22;11839;48.598;8.870;2023-01-15T06:58:45;7.60;99.90
23335;DHT22;11839;48.598;8.870;2023-01-15T07:01:13;7.50;99.90
23335;DHT22;11839;48.598;8.870;2023-01-15T07:03:41;7.50;99.90
23335;DHT22;11839;48.598;8.870;2023-01-15T07:06:09;7.50;99.90
23335;DHT22;11839;48.598;8.870;2023-01-15T07:08:37;7.60;99.90
23335;DHT22;11839;48.598;8.870;2023-01-15T07:11:06;7.60;99.90
23335;DHT22;11839;48.598;8.870;2023-01-15T07:13:34;7.50;99.90
23335;DHT22;11839;48.598;8.870;2023-01-15T07:16:03;7.40;99.90
23335;DHT22;11839;48.598;8.870;2023-01-15T07:18:32;7.40;99.90
23335;DHT22;11839;48.598;8.870;2023-01-15T07:20:59;7.40;99.90
23335;DHT22;11839;48.598;8.870;2023-01-15T07:23:26;7.30;99.90
23335;DHT22;11839;48.598;8.870;2023-01-15T07:25:54;7.40;99.90
23335;DHT22;11839;48.598;8.870;2023-01-15T07:28:22;7.40;99.90
23335;DHT22;11839;48.598;8.870;2023-01-15T07:30:49;7.30;99.90
23335;DHT22;11839;48.598;8.870;2023-01-15T07:33:18;7.20;99.90
23335;DHT22;11839;48.598;8.870;2023-01-15T07:35:45;7.10;99.90
23335;DHT22;11839;48.598;8.870;2023-01-15T07:38:11;7.30;99.90
23335;DHT22;11839;48.598;8.870;2023-01-15T07:40:38;7.30;99.90
23335;DHT22;11839;48.598;8.870;2023-01-15T07:43:05;7.40;99.90
23335;DHT22;11839;48.598;8.870;2023-01-15T07:45:49;7.50;99.90
23335;DHT22;11839;48.598;8.870;2023-01-15T07:48:34;7.30;99.90
23335;DHT22;11839;48.598;8.870;2023-01-15T07:51:19;7.20;99.90
23335;DHT22;11839;48.598;8.870;2023-01-15T07:53:45;7.30;99.90
23335;DHT22;11839;48.598;8.870;2023-01-15T07:56:12;7.40;99.90
23335;DHT22;11839;48.598;8.870;2023-01-15T07:58:39;7.40;99.90
23335;DHT22;11839;48.598;8.870;2023-01-15T08:01:06;7.50;99.90
23335;DHT22;11839;48.598;8.870;2023-01-15T08:03:33;7.40;99.90
23335;DHT22;11839;48.598;8.870;2023-01-15T08:06:01;7.40;99.90
23335;DHT22;11839;48.598;8.870;2023-01-15T08:08:28;7.40;99.90
23335;DHT22;11839;48.598;8.870;2023-01-15T08:10:59;7.40;99.90
23335;DHT22;11839;48.598;8.870;2023-01-15T08:13:44;7.50;99.90
23335;DHT22;11839;48.598;8.870;2023-01-15T08:16:28;7.70;99.90
23335;DHT22;11839;48.598;8.870;2023-01-15T08:18:54;7.80;99.90
23335;DHT22;11839;48.598;8.870;2023-01-15T08:21:23;7.90;99.90
23335;DHT22;11839;48.598;8.870;2023-01-15T08:23:49;8.00;99.90
23335;DHT22;11839;48.598;8.870;2023-01-15T08:26:16;8.30;99.90
23335;DHT22;11839;48.598;8.870;2023-01-15T08:28:43;7.90;99.90
23335;DHT22;11839;48.598;8.870;2023-01-15T08:31:10;8.00;99.90
23335;DHT22;11839;48.598;8.870;2023-01-15T08:33:36;8.40;99.90
23335;DHT22;11839;48.598;8.870;2023-01-15T08:36:04;8.40;99.90
23335;DHT22;11839;48.598;8.870;2023-01-15T08:38:32;8.20;99.90
23335;DHT22;11839;48.598;8.870;2023-01-15T08:40:59;8.20;99.90
23335;DHT22;11839;48.598;8.870;2023-01-15T08:43:29;8.40;99.90
23335;DHT22;11839;48.598;8.870;2023-01-15T08:45:57;8.40;99.90
23335;DHT22;11839;48.598;8.870;2023-01-15T08:48:24;8.50;99.90
23335;DHT22;11839;48.598;8.870;2023-01-15T08:50:51;8.30;99.90
23335;DHT22;11839;48.598;8.870;2023-01-15T08:53:19;8.50;99.90
23335;DHT22;11839;48.598;8.870;2023-01-15T08:55:47;8.40;99.90
23335;DHT22;11839;48.598;8.870;2023-01-15T08:58:15;8.40;99.90
23335;DHT22;11839;48.598;8.870;2023-01-15T09:00:42;8.40;99.90
23335;DHT22;11839;48.598;8.870;2023-01-15T09:03:09;8.30;99.90
23335;DHT22;11839;48.598;8.870;2023-01-15T09:05:36;8.20;99.90
23335;DHT22;11839;48.598;8.870;2023-01-15T09:08:04;8.10;99.90
23335;DHT22;11839;48.598;8.870;2023-01-15T09:10:31;8.00;99.90
23335;DHT22;11839;48.598;8.870;2023-01-15T09:13:00;7.90;99.90
23335;DHT22;11839;48.598;8.870;2023-01-15T09:15:27;7.70;99.90
23335;DHT22;11839;48.598;8.870;2023-01-15T09:17:54;8.10;99.90
23335;DHT22;11839;48.598;8.870;2023-01-15T09:20:21;8.00;99.90
23335;DHT22;11839;48.598;8.870;2023-01-15T09:22:49;8.10;99.90
23335;DHT22;11839;48.598;8.870;2023-01-15T09:25:16;8.10;99.90
23335;DHT22;11839;48.598;8.870;2023-01-15T09:27:44;7.90;99.90
23335;DHT22;11839;48.598;8.870;2023-01-15T09:30:17;7.60;99.90
23335;DHT22;11839;48.598;8.870;2023-01-15T09:32:44;7.60;99.90
23335;DHT22;11839;48.598;8.870;2023-01-15T09:35:11;7.70;99.90
23335;DHT22;11839;48.598;8.870;2023-01-15T09:37:37;7.70;99.90
23335;DHT22;11839;48.598;8.870;2023-01-15T09:40:06;7.80;99.90
23335;DHT22;11839;48.598;8.870;2023-01-15T09:42:43;7.80;99.90
23335;DHT22;11839;48.598;8.870;2023-01-15T09:45:17;7.60;99.90
23335;DHT22;11839;48.598;8.870;2023-01-15T09:48:10;7.20;99.90
23335;DHT22;11839;48.598;8.870;2023-01-15T09:50:48;7.20;99.90
23335;DHT22;11839;48.598;8.870;2023-01-15T09:53:41;7.20;99.90
23335;DHT22;11839;48.598;8.870;2023-01-15T09:56:19;7.20;99.90
23335;DHT22;11839;48.598;8.870;2023-01-15T09:58:46;7.00;99.90
23335;DHT22;11839;48.598;8.870;2023-01-15T10:01:18;7.10;99.90
23335;DHT22;11839;48.598;8.870;2023-01-15T10:03:48;7.10;99.90
23335;DHT22;11839;48.598;8.870;2023-01-15T10:06:20;7.10;99.90
23335;DHT22;11839;48.598;8.870;2023-01-15T10:08:48;7.20;99.90
23335;DHT22;11839;48.598;8.870;2023-01-15T10:11:33;7.10;99.90
23335;DHT22;11839;48.598;8.870;2023-01-15T10:14:36;7.40;99.90
23335;DHT22;11839;48.598;8.870;2023-01-15T10:17:17;7.30;99.90
23335;DHT22;11839;48.598;8.870;2023-01-15T10:19:45;7.30;99.90
23335;DHT22;11839;48.598;8.870;2023-01-15T10:22:20;7.50;99.90
23335;DHT22;11839;48.598;8.870;2023-01-15T10:24:55;7.20;99.90
23335;DHT22;11839;48.598;8.870;2023-01-15T10:27:24;6.90;99.90
23335;DHT22;11839;48.598;8.870;2023-01-15T10:29:54;6.60;99.90
23335;DHT22;11839;48.598;8.870;2023-01-15T10:32:31;6.70;99.90
23335;DHT22;11839;48.598;8.870;2023-01-15T10:35:22;6.90;99.90
23335;DHT22;11839;48.598;8.870;2023-01-15T10:37:55;6.90;99.90
23335;DHT22;11839;48.598;8.870;2023-01-15T10:40:47;6.90;99.90
23335;DHT22;11839;48.598;8.870;2023-01-15T10:43:20;6.90;99.90
23335;DHT22;11839;48.598;8.870;2023-01-15T10:45:50;6.80;99.90
23335;DHT22;11839;48.598;8.870;2023-01-15T10:48:25;7.00;99.90
23335;DHT22;11839;48.598;8.870;2023-01-15T10:50:55;7.10;99.90
23335;DHT22;11839;48.598;8.870;2023-01-15T10:53:29;7.20;99.90
23335;DHT22;11839;48.598;8.870;2023-01-15T10:56:01;7.20;99.90
23335;DHT22;11839;48.598;8.870;2023-01-15T10:58:34;7.10;99.90
23335;DHT22;11839;48.598;8.870;2023-01-15T11:01:05;7.20;99.90
23335;DHT22;11839;48.598;8.870;2023-01-15T11:03:38;6.90;99.90
23335;DHT22;11839;48.598;8.870;2023-01-15T11:06:12;7.10;99.90
23335;DHT22;11839;48.598;8.870;2023-01-15T11:08:41;6.90;99.90
23335;DHT22;11839;48.598;8.870;2023-01-15T11:11:16;6.90;99.90
23335;DHT22;11839;48.598;8.870;2023-01-15T11:13:52;7.00;99.90
23335;DHT22;11839;48.598;8.870;2023-01-15T11:16:37;6.90;99.90
23335;DHT22;11839;48.598;8.870;2023-01-15T11:19:26;7.10;99.90
23335;DHT22;11839;48.598;8.870;2023-01-15T11:22:08;7.30;99.90
23335;DHT22;11839;48.598;8.870;2023-01-15T11:24:37;7.30;99.90
23335;DHT22;11839;48.598;8.870;2023-01-15T11:27:15;6.90;99.90
23335;DHT22;11839;48.598;8.870;2023-01-15T11:29:43;6.60;99.90
23335;DHT22;11839;48.598;8.870;2023-01-15T11:32:20;6.10;99.90
23335;DHT22;11839;48.598;8.870;2023-01-15T11:34:54;5.60;99.90
23335;DHT22;11839;48.598;8.870;2023-01-15T11:37:21;5.30;99.90
23335;DHT22;11839;48.598;8.870;2023-01-15T11:39:52;5.20;99.90
23335;DHT22;11839;48.598;8.870;2023-01-15T11:42:19;5.10;99.90
23335;DHT22;11839;48.598;8.870;2023-01-15T11:45:11;5.30;99.90
23335;DHT22;11839;48.598;8.870;2023-01-15T11:47:56;5.60;99.90
23335;DHT22;11839;48.598;8.870;2023-01-15T11:50:49;5.90;99.90
23335;DHT22;11839;48.598;8.870;2023-01-15T11:53:20;6.00;99.90
23335;DHT22;11839;48.598;8.870;2023-01-15T11:55:57;6.20;99.90
23335;DHT22;11839;48.598;8.870;2023-01-15T11:58:28;6.10;99.90
23335;DHT22;11839;48.598;8.870;2023-01-15T12:00:58;5.80;99.90
23335;DHT22;11839;48.598;8.870;2023-01-15T12:03:28;5.90;99.90
23335;DHT22;11839;48.598;8.870;2023-01-15T12:06:00;5.60;99.90
23335;DHT22;11839;48.598;8.870;2023-01-15T12:08:41;5.60;99.90
23335;DHT22;11839;48.598;8.870;2023-01-15T12:11:28;5.50;99.90
23335;DHT22;11839;48.598;8.870;2023-01-15T12:14:11;5.50;99.90
23335;DHT22;11839;48.598;8.870;2023-01-15T12:16:47;5.60;99.90
23335;DHT22;11839;48.598;8.870;2023-01-15T12:19:21;5.60;99.90
23335;DHT22;11839;48.598;8.870;2023-01-15T12:22:15;5.60;99.90
23335;DHT22;11839;48.598;8.870;2023-01-15T12:25:03;5.60;99.90
23335;DHT22;11839;48.598;8.870;2023-01-15T12:27:46;5.70;99.90
23335;DHT22;11839;48.598;8.870;2023-01-15T12:30:23;5.90;99.90
23335;DHT22;11839;48.598;8.870;2023-01-15T12:32:57;6.00;99.90
23335;DHT22;11839;48.598;8.870;2023-01-15T12:35:28;6.30;99.90
23335;DHT22;11839;48.598;8.870;2023-01-15T12:38:00;6.20;99.90
23335;DHT22;11839;48.598;8.870;2023-01-15T12:40:32;6.00;99.90
23335;DHT22;11839;48.598;8.870;2023-01-15T12:43:13;6.00;99.90
23335;DHT22;11839;48.598;8.870;2023-01-15T12:46:00;6.10;99.90
23335;DHT22;11839;48.598;8.870;2023-01-15T12:48:31;6.10;99.90
23335;DHT22;11839;48.598;8.870;2023-01-15T12:51:02;6.30;99.90
23335;DHT22;11839;48.598;8.870;2023-01-15T12:53:38;6.40;99.90
23335;DHT22;11839;48.598;8.870;2023-01-15T12:56:13;6.50;99.90
23335;DHT22;11839;48.598;8.870;2023-01-15T12:58:46;6.50;99.90
23335;DHT22;11839;48.598;8.870;2023-01-15T13:01:19;6.50;99.90
23335;DHT22;11839;48.598;8.870;2023-01-15T13:04:06;6.70;99.90
23335;DHT22;11839;48.598;8.870;2023-01-15T13:06:39;6.70;99.90
23335;DHT22;11839;48.598;8.870;2023-01-15T13:09:16;6.50;99.90
23335;DHT22;11839;48.598;8.870;2023-01-15T13:11:44;6.60;99.90
23335;DHT22;11839;48.598;8.870;2023-01-15T13:14:14;6.60;99.90
23335;DHT22;11839;48.598;8.870;2023-01-15T13:16:47;6.90;99.90
23335;DHT22;11839;48.598;8.870;2023-01-15T13:19:37;6.90;99.90
23335;DHT22;11839;48.598;8.870;2023-01-15T13:22:14;6.80;99.90
23335;DHT22;11839;48.598;8.870;2023-01-15T13:25:17;6.60;99.90
23335;DHT22;11839;48.598;8.870;2023-01-15T13:27:56;6.50;99.90
23335;DHT22;11839;48.598;8.870;2023-01-15T13:30:47;6.50;99.90
23335;DHT22;11839;48.598;8.870;2023-01-15T13:33:25;6.50;99.90
23335;DHT22;11839;48.598;8.870;2023-01-15T13:35:56;6.50;99.90
23335;DHT22;11839;48.598;8.870;2023-01-15T13:38:27;6.40;99.90
23335;DHT22;11839;48.598;8.870;2023-01-15T13:40:59;6.50;99.90
23335;DHT22;11839;48.598;8.870;2023-01-15T13:43:31;6.60;99.90
23335;DHT22;11839;48.598;8.870;2023-01-15T13:45:59;6.70;99.90
23335;DHT22;11839;48.598;8.870;2023-01-15T13:48:30;6.60;99.90
23335;DHT22;11839;48.598;8.870;2023-01-15T13:50:59;6.70;99.90
23335;DHT22;11839;48.598;8.870;2023-01-15T13:53:28;6.60;99.90
23335;DHT22;11839;48.598;8.870;2023-01-15T13:56:00;6.60;99.90
23335;DHT22;11839;48.598;8.870;2023-01-15T13:58:31;6.80;99.90
23335;DHT22;11839;48.598;8.870;2023-01-15T14:01:05;6.70;99.90
23335;DHT22;11839;48.598;8.870;2023-01-15T14:03:33;6.50;99.90
23335;DHT22;11839;48.598;8.870;2023-01-15T14:06:02;6.70;99.90
23335;DHT22;11839;48.598;8.870;2023-01-15T14:08:37;6.80;99.90
23335;DHT22;11839;48.598;8.870;2023-01-15T14:11:33;7.00;99.90
23335;DHT22;11839;48.598;8.870;2023-01-15T14:14:16;6.70;99.90
23335;DHT22;11839;48.598;8.870;2023-01-15T14:16:54;6.60;99.90
23335;DHT22;11839;48.598;8.870;2023-01-15T14:28:24;6.80;99.90
23335;DHT22;11839;48.598;8.870;2023-01-15T14:31:18;6.60;99.90
23335;DHT22;11839;48.598;8.870;2023-01-15T14:33:57;6.50;99.90
23335;DHT22;11839;48.598;8.870;2023-01-15T14:36:34;6.50;99.90
23335;DHT22;11839;48.598;8.870;2023-01-15T14:39:25;6.40;99.90
23335;DHT22;11839;48.598;8.870;2023-01-15T14:41:57;6.50;99.90
23335;DHT22;11839;48.598;8.870;2023-01-15T14:44:45;6.70;99.90
23335;DHT22;11839;48.598;8.870;2023-01-15T14:47:23;6.60;99.90
23335;DHT22;11839;48.598;8.870;2023-01-15T14:49:59;6.50;99.90
23335;DHT22;11839;48.598;8.870;2023-01-15T14:52:26;6.80;99.90
23335;DHT22;11839;48.598;8.870;2023-01-15T14:54:53;6.80;99.90
23335;DHT22;11839;48.598;8.870;2023-01-15T14:57:22;6.60;99.90
23335;DHT22;11839;48.598;8.870;2023-01-15T14:59:56;6.50;99.90
23335;DHT22;11839;48.598;8.870;2023-01-15T15:02:28;6.50;99.90
23335;DHT22;11839;48.598;8.870;2023-01-15T15:04:58;6.50;99.90
23335;DHT22;11839;48.598;8.870;2023-01-15T15:07:27;6.30;99.90
23335;DHT22;11839;48.598;8.870;2023-01-15T15:09:58;6.30;99.90
23335;DHT22;11839;48.598;8.870;2023-01-15T15:12:34;6.20;99.90
23335;DHT22;11839;48.598;8.870;2023-01-15T15:15:10;6.30;99.90
23335;DHT22;11839;48.598;8.870;2023-01-15T15:17:44;6.20;99.90
23335;DHT22;11839;48.598;8.870;2023-01-15T15:20:21;6.20;99.90
23335;DHT22;11839;48.598;8.870;2023-01-15T15:22:53;6.10;99.90
23335;DHT22;11839;48.598;8.870;2023-01-15T15:25:22;6.20;99.90
23335;DHT22;11839;48.598;8.870;2023-01-15T15:28:00;6.00;99.90
23335;DHT22;11839;48.598;8.870;2023-01-15T15:30:31;6.10;99.90
23335;DHT22;11839;48.598;8.870;2023-01-15T15:32:58;6.00;99.90
23335;DHT22;11839;48.598;8.870;2023-01-15T15:35:27;6.20;99.90
23335;DHT22;11839;48.598;8.870;2023-01-15T15:37:54;6.20;99.90
23335;DHT22;11839;48.598;8.870;2023-01-15T15:40:26;6.40;99.90
23335;DHT22;11839;48.598;8.870;2023-01-15T15:43:02;6.10;99.90
23335;DHT22;11839;48.598;8.870;2023-01-15T15:45:53;6.30;99.90
23335;DHT22;11839;48.598;8.870;2023-01-15T15:48:38;6.20;99.90
23335;DHT22;11839;48.598;8.870;2023-01-15T15:51:24;6.10;99.90
23335;DHT22;11839;48.598;8.870;2023-01-15T15:54:03;6.10;99.90
23335;DHT22;11839;48.598;8.870;2023-01-15T15:56:30;6.30;99.90
23335;DHT22;11839;48.598;8.870;2023-01-15T15:58:58;6.40;99.90
23335;DHT22;11839;48.598;8.870;2023-01-15T16:01:26;6.40;99.90
23335;DHT22;11839;48.598;8.870;2023-01-15T16:03:54;6.20;99.90
23335;DHT22;11839;48.598;8.870;2023-01-15T16:06:22;6.20;99.90
23335;DHT22;11839;48.598;8.870;2023-01-15T16:08:53;6.20;99.90
23335;DHT22;11839;48.598;8.870;2023-01-15T16:11:23;6.10;99.90
23335;DHT22;11839;48.598;8.870;2023-01-15T16:13:52;6.00;99.90
23335;DHT22;11839;48.598;8.870;2023-01-15T16:16:20;6.00;99.90
23335;DHT22;11839;48.598;8.870;2023-01-15T16:18:53;6.10;99.90